createdAt,value
2023-08-06T00:00:38.523Z,34
2023-08-06T00:06:16.229Z,34.1
2023-08-06T00:12:08.343Z,34.2
2023-08-06T00:17:45.022Z,34.3
2023-08-06T00:23:36.791Z,34.4
2023-08-06T00:29:28.617Z,34.5
2023-08-06T00:35:20.091Z,34.6
2023-08-06T00:41:11.088Z,34.6
2023-08-06T00:46:47.721Z,34.8
2023-08-06T00:52:41.262Z,34.8
2023-08-06T00:58:32.646Z,34.9
2023-08-06T01:04:25.045Z,35
2023-08-06T01:10:16.528Z,35.1
2023-08-06T01:15:53.153Z,35.1
2023-08-06T01:21:29.993Z,35.2
2023-08-06T01:27:21.599Z,35.3
2023-08-06T01:33:13.653Z,35.4
2023-08-06T01:39:04.909Z,35.4
2023-08-06T01:44:57.083Z,35.5
2023-08-06T01:50:48.773Z,35.6
2023-08-06T01:56:25.293Z,35.6
2023-08-06T02:02:01.919Z,35.7
2023-08-06T02:07:53.803Z,35.8
2023-08-06T02:13:44.278Z,35.8
2023-08-06T02:19:35.993Z,35.9
2023-08-06T02:25:27.265Z,35.9
2023-08-06T02:31:19.221Z,36
2023-08-06T02:37:11.039Z,36.1
2023-08-06T02:42:47.598Z,36.1
2023-08-06T02:48:25.644Z,36.2
2023-08-06T02:54:17.348Z,36.3
2023-08-06T03:00:09.431Z,36.3
2023-08-06T03:06:01.659Z,36.3
2023-08-06T03:11:53.847Z,36.4
2023-08-06T03:17:46.059Z,36.4
2023-08-06T03:23:37.058Z,36.5
2023-08-06T03:29:13.048Z,36.6
2023-08-06T03:35:05.300Z,36.6
2023-08-06T03:40:56.937Z,36.6
2023-08-06T03:46:49.658Z,36.7
2023-08-06T03:52:41.742Z,36.8
2023-08-06T03:58:33.547Z,36.8
2023-08-06T04:04:11.294Z,36.8
2023-08-06T04:10:02.920Z,36.8
2023-08-06T04:15:54.961Z,36.9
2023-08-06T04:21:47.284Z,36.9
2023-08-06T04:27:23.433Z,36.9
2023-08-06T04:33:17.206Z,37
2023-08-06T04:39:08.391Z,37
2023-08-06T04:45:00.528Z,37.1
2023-08-06T04:50:52.180Z,37.1
2023-08-06T04:56:44.348Z,37.1
2023-08-06T05:02:37.730Z,37.2
2023-08-06T05:08:14.260Z,37.2
2023-08-06T05:14:05.479Z,37.3
2023-08-06T05:19:57.578Z,37.3
2023-08-06T05:25:49.464Z,37.3
2023-08-06T05:31:25.515Z,37.3
2023-08-06T05:37:19.619Z,37.4
2023-08-06T05:43:10.848Z,37.4
2023-08-06T05:49:05.448Z,37.4
2023-08-06T05:54:58.650Z,37.4
2023-08-06T06:00:49.680Z,37.4
2023-08-06T06:06:41.249Z,37.5
2023-08-06T06:12:32.885Z,37.5
2023-08-06T06:18:27.568Z,37.5
2023-08-06T06:24:18.501Z,37.6
2023-08-06T06:30:13.648Z,37.6
2023-08-06T06:36:05.937Z,37.6
2023-08-06T06:41:58.157Z,37.6
2023-08-06T06:47:35.171Z,37.6
2023-08-06T06:53:26.317Z,37.5
2023-08-06T06:59:17.735Z,37.6
2023-08-06T07:05:10.592Z,37.6
2023-08-06T07:10:46.170Z,37.6
2023-08-06T07:16:26.130Z,37.6
2023-08-06T07:22:18.031Z,37.6
2023-08-06T07:27:54.967Z,37.6
2023-08-06T07:33:46.024Z,37.9
2023-08-06T07:39:38.217Z,38
2023-08-06T07:45:30.685Z,38.1
2023-08-06T07:51:24.029Z,38.8
2023-08-06T07:57:15.895Z,38.9
2023-08-06T08:02:52.298Z,38.9
2023-08-06T08:08:44.996Z,39.5
2023-08-06T08:14:36.808Z,39.8
2023-08-06T08:20:13.072Z,40.1
2023-08-06T08:26:05.082Z,40.9
2023-08-06T08:31:56.849Z,41.5
2023-08-06T08:37:52.100Z,42.1
2023-08-06T08:43:28.861Z,42.7
2023-08-06T08:48:51.406Z,43.4
2023-08-06T08:54:43.252Z,43.9
2023-08-06T09:00:35.546Z,44.5
2023-08-06T09:06:30.864Z,45.1
2023-08-06T09:12:06.549Z,45.6
2023-08-06T09:17:59.096Z,46.1
2023-08-06T09:23:50.866Z,46.6
2023-08-06T09:29:42.571Z,47.2
2023-08-06T09:35:35.434Z,47.7
2023-08-06T09:41:29.926Z,48.2
2023-08-06T09:47:21.415Z,48.7
2023-08-06T09:53:14.525Z,49.2
2023-08-06T09:59:18.241Z,49.7
2023-08-06T10:05:30.323Z,49.6
2023-08-06T10:11:27.925Z,49.2
2023-08-06T10:17:20.006Z,49.3
2023-08-06T10:23:24.853Z,49.4
2023-08-06T10:29:17.137Z,49.1
2023-08-06T10:35:08.961Z,49.1
2023-08-06T10:41:11.064Z,48.9
2023-08-06T10:47:06.629Z,48.8
2023-08-06T10:53:03.264Z,48.7
2023-08-06T10:58:54.956Z,48.6
2023-08-06T11:04:36.138Z,48.6
2023-08-06T11:10:29.348Z,46.3
2023-08-06T11:16:36.496Z,44
2023-08-06T11:22:13.617Z,43.3
2023-08-06T11:28:05.522Z,42.8
2023-08-06T11:33:57.832Z,42.4
2023-08-06T11:39:49.497Z,42.1
2023-08-06T11:45:41.144Z,41.9
2023-08-06T11:51:32.851Z,41.8
2023-08-06T11:57:24.512Z,41.7
2023-08-06T12:03:01.653Z,42.1
2023-08-06T12:08:53.424Z,41.9
2023-08-06T12:14:45.535Z,41.9
2023-08-06T12:20:37.470Z,41.9
2023-08-06T12:26:29.380Z,41.9
2023-08-06T12:32:21.741Z,42.4
2023-08-06T12:38:27.875Z,42.7
2023-08-06T12:44:43.997Z,42.7
2023-08-06T12:50:36.181Z,42.8
2023-08-06T12:56:12.423Z,42.8
2023-08-06T13:02:05.691Z,42.8
2023-08-06T13:08:02.165Z,42.8
2023-08-06T13:13:38.069Z,42.8
2023-08-06T13:19:14.168Z,42.8
2023-08-06T13:25:06.473Z,42.9
2023-08-06T13:30:59.909Z,42.9
2023-08-06T13:36:51.164Z,42.9
2023-08-06T13:42:45.091Z,42.9
2023-08-06T13:48:22.045Z,42.9
2023-08-06T13:54:04.087Z,42.9
2023-08-06T13:59:41.091Z,42.9
2023-08-06T14:05:47.222Z,42.9
2023-08-06T14:11:38.921Z,43
2023-08-06T14:17:42.525Z,43
2023-08-06T14:23:19.324Z,43
2023-08-06T14:28:54.928Z,43
2023-08-06T14:35:00.755Z,43.1
2023-08-06T14:41:07.568Z,43.1
2023-08-06T14:46:58.932Z,43.1
2023-08-06T14:52:51.348Z,43.1
2023-08-06T14:58:43.014Z,43.1
2023-08-06T15:04:34.932Z,43.1
2023-08-06T15:10:59.235Z,43.1
2023-08-06T15:16:50.337Z,43.1
2023-08-06T15:22:42.531Z,43.1
2023-08-06T15:28:34.647Z,43.1
2023-08-06T15:34:14.827Z,43.1
2023-08-06T15:40:05.704Z,43.1
2023-08-06T15:45:57.231Z,43.1
2023-08-06T15:51:51.988Z,43.1
2023-08-06T15:57:27.810Z,43.1
2023-08-06T16:02:49.474Z,43.1
2023-08-06T16:08:43.003Z,43.1
2023-08-06T16:14:35.169Z,43.1
2023-08-06T16:20:30.622Z,43.1
2023-08-06T16:26:22.185Z,43.1
2023-08-06T16:32:13.587Z,43.1
2023-08-06T16:38:05.034Z,43.1
2023-08-06T16:43:58.751Z,43.1
2023-08-06T16:49:49.929Z,43.1
2023-08-06T16:55:42.384Z,43.1
2023-08-06T17:01:19.276Z,43.1
2023-08-06T17:07:12.501Z,43.1
2023-08-06T17:13:14.285Z,43.1
2023-08-06T17:19:11.852Z,43.1
2023-08-06T17:25:02.918Z,43.1
2023-08-06T17:30:54.690Z,43.1
2023-08-06T17:36:46.874Z,43.1
2023-08-06T17:42:38.198Z,43.1
2023-08-06T17:48:42.229Z,43.1
2023-08-06T17:54:33.417Z,43
2023-08-06T18:00:24.798Z,43.1
2023-08-06T18:06:17.772Z,43
2023-08-06T18:12:09.436Z,43
2023-08-06T18:18:01.218Z,42.9
2023-08-06T18:23:38.253Z,42.9
2023-08-06T18:29:30.178Z,42.9
2023-08-06T18:35:22.026Z,42.9
2023-08-06T18:41:14.111Z,34.9
2023-08-06T18:47:06.211Z,24.6
2023-08-06T18:52:57.141Z,24.8
2023-08-06T18:58:49.413Z,25.1
2023-08-06T19:04:42.115Z,25.4
2023-08-06T19:10:35.060Z,25.8
2023-08-06T19:16:27.040Z,26.1
2023-08-06T19:22:06.102Z,26.4
2023-08-06T19:27:58.114Z,26.6
2023-08-06T19:33:55.688Z,26.9
2023-08-06T19:39:48.099Z,27.1
2023-08-06T19:45:23.707Z,27.3
2023-08-06T19:51:17.342Z,27.5
2023-08-06T19:57:09.754Z,27.7
2023-08-06T20:08:37.966Z,28
2023-08-06T20:14:29.644Z,28.2
2023-08-06T20:20:23.920Z,28.3
2023-08-06T20:26:17.576Z,28.4
2023-08-06T20:32:11.385Z,28.6
2023-08-06T20:38:03.624Z,28.8
2023-08-06T20:43:39.659Z,28.9
2023-08-06T20:49:16.341Z,29
2023-08-06T20:55:07.177Z,29.1
2023-08-06T21:00:58.590Z,29.2
2023-08-06T21:06:50.438Z,29.3
2023-08-06T21:12:40.598Z,29.4
2023-08-06T21:18:33.165Z,29.5
2023-08-06T21:24:24.907Z,29.6
2023-08-06T21:30:16.321Z,29.8
2023-08-06T21:36:11.785Z,29.8
2023-08-06T21:42:03.607Z,29.9
2023-08-06T21:47:57.069Z,30
2023-08-06T21:53:49.104Z,30.1
2023-08-06T21:59:41.010Z,30.2
2023-08-06T22:05:18.704Z,30.3
2023-08-06T22:11:10.029Z,30.4
2023-08-06T22:17:02.070Z,30.4
2023-08-06T22:22:37.734Z,30.5
2023-08-06T22:28:13.968Z,30.6
2023-08-06T22:34:19.809Z,30.6
2023-08-06T22:40:10.833Z,30.7
2023-08-06T22:46:02.433Z,30.8
2023-08-06T22:51:54.539Z,30.9
2023-08-06T22:58:39.718Z,30.9
2023-08-06T23:04:48.322Z,31
2023-08-06T23:10:40.811Z,31.1
2023-08-06T23:16:33.000Z,31.1
2023-08-06T23:22:24.242Z,31.2
2023-08-06T23:28:15.405Z,31.3
2023-08-06T23:34:10.780Z,31.3
2023-08-06T23:40:12.780Z,31.4
2023-08-06T23:46:04.461Z,31.4
2023-08-06T23:51:40.724Z,31.5
2023-08-06T23:57:32.281Z,31.6
